Time;durP1;ratioP1;P1;durP2;ratioP2;P2;SDS_P1;SDS_P2;PMS_P1;PMS_P2;Temp;Humidity;BMP_temperature;BMP_pressure;BME280_temperature;BME280_humidity;BME280_pressure;Samples;Min_cycle;Max_cycle;Signal;HPM_P1;HPM_P2
2023/05/10 00:00:52;;;;;;;5.63;5.13;;;15.50;99.90;;;;;;5033518;28;20571;-76
2023/05/10 00:03:18;;;;;;;5.17;4.77;;;15.50;99.90;;;;;;5015861;28;20620;-76
2023/05/10 00:05:44;;;;;;;5.43;4.93;;;15.50;99.90;;;;;;5033198;28;20227;-76
2023/05/10 00:08:09;;;;;;;5.63;5.13;;;15.50;99.90;;;;;;4999861;28;20208;-76
2023/05/10 00:10:37;;;;;;;5.23;4.73;;;15.60;99.90;;;;;;5033701;28;20178;-77
2023/05/10 00:13:03;;;;;;;7.00;6.30;;;15.60;99.90;;;;;;5031949;28;20197;-76
2023/05/10 00:15:30;;;;;;;6.13;5.63;;;15.60;99.90;;;;;;5032258;28;21127;-76
2023/05/10 00:17:56;;;;;;;6.40;5.80;;;15.60;99.90;;;;;;5033070;28;20894;-77
2023/05/10 00:20:22;;;;;;;7.07;6.37;;;15.60;99.90;;;;;;5032291;28;20576;-76
2023/05/10 00:22:48;;;;;;;8.80;6.50;;;15.60;99.90;;;;;;5014276;28;20596;-76
2023/05/10 00:25:13;;;;;;;6.70;6.10;;;15.60;99.90;;;;;;5012536;28;20589;-76
2023/05/10 00:27:39;;;;;;;6.47;5.87;;;15.60;99.90;;;;;;5011774;28;20264;-76
2023/05/10 00:30:06;;;;;;;6.20;5.67;;;15.60;99.90;;;;;;5012527;28;20615;-76
2023/05/10 00:32:32;;;;;;;6.67;6.03;;;15.60;99.90;;;;;;5012198;28;20275;-76
2023/05/10 00:34:57;;;;;;;7.83;7.13;;;15.60;99.90;;;;;;5015618;28;20612;-76
2023/05/10 00:37:23;;;;;;;9.13;6.40;;;15.60;99.90;;;;;;5011966;28;20623;-76
2023/05/10 00:39:49;;;;;;;6.90;6.20;;;15.60;99.90;;;;;;5013438;28;20170;-76
2023/05/10 00:42:14;;;;;;;7.53;6.50;;;15.60;99.90;;;;;;4995403;28;20174;-76
2023/05/10 00:44:41;;;;;;;7.27;6.57;;;15.60;99.90;;;;;;4994664;28;20206;-76
2023/05/10 00:47:07;;;;;;;7.23;6.60;;;15.60;99.90;;;;;;4995551;28;20739;-76
2023/05/10 00:49:33;;;;;;;7.33;6.63;;;15.60;99.90;;;;;;4995303;28;20591;-76
2023/05/10 00:51:59;;;;;;;8.10;7.40;;;15.70;99.90;;;;;;5005706;28;20588;-76
2023/05/10 00:54:25;;;;;;;11.07;7.17;;;15.70;99.90;;;;;;5014877;28;21175;-76
2023/05/10 00:56:51;;;;;;;8.83;7.70;;;15.70;99.90;;;;;;5013184;28;20593;-76
2023/05/10 00:59:18;;;;;;;8.00;7.20;;;15.70;99.90;;;;;;5012781;28;20695;-76
2023/05/10 01:01:46;;;;;;;7.70;7.00;;;15.70;99.90;;;;;;5012786;28;20569;-76
2023/05/10 01:04:13;;;;;;;7.40;6.70;;;15.70;99.90;;;;;;4984134;28;20768;-76
2023/05/10 01:06:42;;;;;;;7.47;6.73;;;15.70;99.90;;;;;;5013090;28;20925;-76
2023/05/10 01:09:09;;;;;;;7.37;6.67;;;15.70;99.90;;;;;;5012191;28;20921;-76
2023/05/10 01:11:36;;;;;;;7.90;7.10;;;15.70;99.90;;;;;;5001052;28;20594;-76
2023/05/10 01:14:02;;;;;;;7.70;7.00;;;15.70;99.90;;;;;;4970149;28;20659;-76
2023/05/10 01:16:32;;;;;;;9.13;7.20;;;15.80;99.90;;;;;;4994972;28;20782;-76
2023/05/10 01:18:58;;;;;;;8.10;7.40;;;15.80;99.90;;;;;;4972725;28;20573;-76
2023/05/10 01:21:42;;;;;;;9.17;8.17;;;15.80;99.90;;;;;;4994277;28;20675;-76
2023/05/10 01:24:45;;;;;;;8.93;7.73;;;15.80;99.90;;;;;;4959483;28;20617;-76
2023/05/10 01:27:30;;;;;;;8.50;7.13;;;15.80;99.90;;;;;;4974925;28;20621;-76
2023/05/10 01:30:21;;;;;;;7.43;6.73;;;15.80;99.90;;;;;;4976983;28;20601;-76
2023/05/10 01:33:06;;;;;;;7.20;6.50;;;15.80;99.90;;;;;;4958745;28;21209;-76
2023/05/10 01:35:49;;;;;;;7.63;6.90;;;15.80;99.90;;;;;;4991577;28;20647;-76
2023/05/10 01:38:50;;;;;;;8.03;7.23;;;15.80;99.90;;;;;;4975000;28;20594;-76
2023/05/10 01:41:38;;;;;;;7.27;6.57;;;15.80;99.90;;;;;;4975225;28;20582;-76
2023/05/10 01:44:17;;;;;;;8.43;7.47;;;15.80;99.90;;;;;;4974768;28;20637;-76
2023/05/10 01:46:51;;;;;;;7.20;6.27;;;15.80;99.90;;;;;;4977652;28;20645;-76
2023/05/10 01:49:25;;;;;;;10.77;7.63;;;15.80;99.90;;;;;;4997417;28;20592;-76
2023/05/10 01:51:56;;;;;;;8.50;6.53;;;15.80;99.90;;;;;;4994606;28;21127;-76
2023/05/10 01:54:24;;;;;;;7.20;6.60;;;15.80;99.90;;;;;;5010408;28;20610;-76
2023/05/10 01:56:59;;;;;;;9.33;7.87;;;15.80;99.90;;;;;;4977357;28;20585;-76
2023/05/10 01:59:30;;;;;;;7.33;6.63;;;15.80;99.90;;;;;;5010408;28;20584;-76
2023/05/10 02:01:59;;;;;;;8.60;7.80;;;15.80;99.90;;;;;;5010689;28;20593;-76
2023/05/10 02:04:25;;;;;;;6.87;6.20;;;15.80;99.90;;;;;;4993924;28;20708;-76
2023/05/10 02:06:53;;;;;;;8.00;7.17;;;15.80;99.90;;;;;;5000315;28;21037;-76
2023/05/10 02:09:21;;;;;;;7.87;7.07;;;15.80;99.90;;;;;;5030939;28;20616;-76
2023/05/10 02:11:48;;;;;;;7.77;6.97;;;15.80;99.90;;;;;;5030236;28;20576;-76
2023/05/10 02:14:16;;;;;;;7.27;6.60;;;15.80;99.90;;;;;;5013106;28;20619;-76
2023/05/10 02:16:44;;;;;;;8.13;7.30;;;15.80;99.90;;;;;;5031196;28;20919;-77
2023/05/10 02:19:11;;;;;;;7.80;7.00;;;15.80;99.90;;;;;;4997769;28;21133;-76
2023/05/10 02:21:39;;;;;;;7.63;6.13;;;15.80;99.90;;;;;;4991460;28;21174;-76
2023/05/10 02:24:06;;;;;;;8.57;7.77;;;15.80;99.90;;;;;;5011577;28;21377;-76
2023/05/10 02:26:33;;;;;;;9.30;6.30;;;15.80;99.90;;;;;;5032260;28;21160;-76
2023/05/10 02:29:03;;;;;;;7.37;6.67;;;15.80;99.90;;;;;;5013800;28;20580;-77
2023/05/10 02:31:31;;;;;;;8.07;6.67;;;15.70;99.90;;;;;;5012886;28;20588;-76
2023/05/10 02:33:58;;;;;;;5.70;5.10;;;15.70;99.90;;;;;;5031326;28;21137;-76
2023/05/10 02:36:27;;;;;;;5.80;5.20;;;15.70;99.90;;;;;;5030496;28;20577;-76
2023/05/10 02:38:53;;;;;;;5.87;5.20;;;15.70;99.90;;;;;;5030015;28;20579;-76
2023/05/10 02:41:22;;;;;;;8.40;4.87;;;15.70;99.90;;;;;;5029244;28;20667;-76
2023/05/10 02:43:51;;;;;;;4.93;3.90;;;15.70;99.90;;;;;;5029482;28;20784;-76
2023/05/10 02:46:18;;;;;;;4.67;3.50;;;15.70;99.90;;;;;;5012582;28;20584;-76
2023/05/10 02:48:43;;;;;;;5.40;3.67;;;15.70;99.90;;;;;;5029649;28;20643;-77
2023/05/10 02:51:13;;;;;;;5.30;4.23;;;15.60;99.90;;;;;;5013481;28;20607;-77
2023/05/10 02:53:42;;;;;;;4.97;4.47;;;15.60;99.90;;;;;;5012978;28;20640;-76
2023/05/10 02:56:21;;;;;;;3.90;3.60;;;15.60;99.90;;;;;;4996793;28;20647;-76
2023/05/10 02:58:47;;;;;;;6.40;3.70;;;15.60;99.90;;;;;;5029178;28;20572;-76
2023/05/10 03:01:12;;;;;;;4.87;4.13;;;15.60;99.90;;;;;;5031948;28;20592;-76
2023/05/10 03:03:38;;;;;;;6.53;4.00;;;15.50;99.90;;;;;;5014515;28;20221;-76
2023/05/10 03:06:04;;;;;;;4.90;3.90;;;15.50;99.90;;;;;;5012860;28;20256;-76
2023/05/10 03:08:30;;;;;;;5.67;3.87;;;15.50;99.90;;;;;;5014286;28;20673;-76
2023/05/10 03:11:22;;;;;;;4.30;3.80;;;15.50;99.90;;;;;;5017203;28;20590;-76
2023/05/10 03:14:04;;;;;;;4.50;3.80;;;15.50;99.90;;;;;;5016591;28;20612;-76
2023/05/10 03:16:40;;;;;;;3.70;2.73;;;15.50;99.90;;;;;;5034721;28;20556;-76
2023/05/10 03:20:02;;;;;;;4.30;3.90;;;15.50;99.90;;;;;;5011927;28;20600;-76
2023/05/10 03:22:44;;;;;;;4.70;4.00;;;15.50;99.90;;;;;;4903553;29;20982;-76
2023/05/10 03:25:11;;;;;;;3.80;3.47;;;15.50;99.90;;;;;;4971805;28;20632;-76
2023/05/10 03:27:42;;;;;;;5.33;3.50;;;15.50;99.90;;;;;;4996876;28;20683;-75
2023/05/10 03:30:10;;;;;;;5.30;3.63;;;15.50;99.90;;;;;;4996848;28;20569;-76
2023/05/10 03:32:36;;;;;;;4.20;3.47;;;15.50;99.90;;;;;;4995041;28;20731;-77
2023/05/10 03:35:09;;;;;;;5.03;3.97;;;15.50;99.90;;;;;;4995785;28;20668;-76
2023/05/10 03:37:36;;;;;;;4.93;4.43;;;15.60;99.90;;;;;;4996834;28;20577;-76
2023/05/10 03:40:03;;;;;;;6.23;4.37;;;15.50;99.90;;;;;;5033712;28;20651;-76
2023/05/10 03:42:31;;;;;;;4.57;4.10;;;15.60;99.90;;;;;;4996684;28;20182;-76
2023/05/10 03:44:57;;;;;;;6.67;4.10;;;15.60;99.90;;;;;;5029431;28;20620;-76
2023/05/10 03:47:23;;;;;;;6.10;4.40;;;15.50;99.90;;;;;;5013991;28;20616;-76
2023/05/10 03:49:48;;;;;;;6.20;4.33;;;15.60;99.90;;;;;;4997084;28;20173;-76
2023/05/10 03:52:14;;;;;;;11.17;6.30;;;15.60;99.90;;;;;;5025893;28;20680;-76
2023/05/10 03:54:40;;;;;;;8.03;6.27;;;15.60;99.90;;;;;;5029387;28;20198;-76
2023/05/10 03:57:06;;;;;;;7.63;5.73;;;15.60;99.90;;;;;;5013723;28;20171;-76
2023/05/10 03:59:32;;;;;;;6.53;5.90;;;15.60;99.90;;;;;;4980226;28;20532;-76
2023/05/10 04:01:57;;;;;;;8.23;6.70;;;15.70;99.90;;;;;;5027553;28;20938;-76
2023/05/10 04:04:23;;;;;;;8.00;7.13;;;15.70;99.90;;;;;;5015063;28;20240;-76
2023/05/10 04:06:50;;;;;;;7.50;6.80;;;15.70;99.90;;;;;;4995573;28;20301;-76
2023/05/10 04:09:16;;;;;;;8.00;7.20;;;15.70;99.90;;;;;;4980256;28;20700;-76
2023/05/10 04:11:42;;;;;;;8.27;7.03;;;15.70;99.90;;;;;;4996299;28;20990;-76
2023/05/10 04:14:08;;;;;;;8.37;7.57;;;15.70;99.90;;;;;;5021182;28;20663;-76
2023/05/10 04:16:34;;;;;;;9.70;8.60;;;15.80;99.90;;;;;;5037316;28;20584;-76
2023/05/10 04:19:00;;;;;;;11.87;9.60;;;15.80;99.90;;;;;;5015609;28;20977;-76
2023/05/10 04:21:26;;;;;;;10.83;9.20;;;15.80;99.90;;;;;;5025170;28;20585;-76
2023/05/10 04:23:52;;;;;;;10.10;9.00;;;15.80;99.90;;;;;;5013288;28;21137;-76
2023/05/10 04:26:17;;;;;;;9.90;8.43;;;15.80;99.90;;;;;;5013505;28;20173;-76
2023/05/10 04:28:43;;;;;;;11.13;9.20;;;15.80;99.90;;;;;;5013438;28;20206;-76
2023/05/10 04:31:10;;;;;;;10.27;9.20;;;15.80;99.90;;;;;;5012315;28;20170;-76
2023/05/10 04:33:36;;;;;;;10.23;9.23;;;15.80;99.90;;;;;;5013126;28;20665;-76
2023/05/10 04:36:02;;;;;;;10.63;9.17;;;15.80;99.90;;;;;;5013317;28;20573;-76
2023/05/10 04:38:29;;;;;;;11.33;9.20;;;15.80;99.90;;;;;;5011580;28;20672;-77
2023/05/10 04:40:54;;;;;;;10.17;8.40;;;15.70;99.90;;;;;;5013676;28;20565;-76
2023/05/10 04:43:20;;;;;;;12.47;9.10;;;15.70;99.90;;;;;;4995661;28;20624;-76
2023/05/10 04:45:46;;;;;;;11.30;8.20;;;15.70;99.90;;;;;;5011527;28;20225;-76
2023/05/10 04:48:12;;;;;;;16.53;9.90;;;15.80;99.90;;;;;;5013408;28;20617;-76
2023/05/10 04:50:39;;;;;;;11.57;8.97;;;15.70;99.90;;;;;;4995617;28;20589;-76
2023/05/10 04:53:05;;;;;;;13.20;9.00;;;15.70;99.90;;;;;;5015381;28;20289;-75
2023/05/10 04:55:30;;;;;;;11.57;9.40;;;15.70;99.90;;;;;;5012802;28;20980;-76
2023/05/10 04:57:57;;;;;;;9.23;8.20;;;15.70;99.90;;;;;;4995270;28;20600;-76
2023/05/10 05:00:23;;;;;;;10.03;8.73;;;15.70;99.90;;;;;;4995048;28;20675;-76
2023/05/10 05:02:48;;;;;;;11.63;8.10;;;15.80;99.90;;;;;;5011426;28;20597;-76
2023/05/10 05:05:14;;;;;;;10.87;9.73;;;15.80;99.90;;;;;;5012756;28;20581;-76
2023/05/10 05:07:40;;;;;;;10.40;9.37;;;15.80;99.90;;;;;;5012516;28;20600;-76
2023/05/10 05:10:07;;;;;;;11.00;8.90;;;15.80;99.90;;;;;;5011657;28;20542;-76
2023/05/10 05:12:33;;;;;;;14.67;9.40;;;15.90;99.90;;;;;;5031070;28;20200;-76
2023/05/10 05:14:58;;;;;;;12.50;10.10;;;15.90;99.90;;;;;;5032486;28;20699;-76
2023/05/10 05:17:24;;;;;;;11.57;9.60;;;15.90;99.90;;;;;;5013958;28;20573;-76
2023/05/10 05:19:50;;;;;;;13.17;9.77;;;15.90;99.90;;;;;;5031398;28;20181;-76
2023/05/10 05:22:16;;;;;;;13.10;9.67;;;16.00;99.90;;;;;;5017631;28;20181;-76
2023/05/10 05:24:41;;;;;;;14.37;10.27;;;16.00;99.90;;;;;;5011282;28;20229;-76
2023/05/10 05:27:07;;;;;;;11.47;9.63;;;16.00;99.90;;;;;;5010767;28;20213;-75
2023/05/10 05:29:32;;;;;;;13.53;9.70;;;16.00;99.90;;;;;;5015103;28;20650;-75
2023/05/10 05:31:58;;;;;;;9.10;7.60;;;16.00;99.90;;;;;;4994552;28;20174;-75
2023/05/10 05:34:25;;;;;;;13.83;9.17;;;16.00;99.90;;;;;;4995017;28;20272;-75
2023/05/10 05:36:51;;;;;;;8.20;7.40;;;16.10;99.90;;;;;;4994234;28;20584;-75
2023/05/10 05:39:17;;;;;;;12.33;8.77;;;16.10;99.90;;;;;;5012415;28;20600;-75
2023/05/10 05:41:43;;;;;;;12.67;8.03;;;16.10;99.90;;;;;;4994539;28;20269;-75
2023/05/10 05:44:09;;;;;;;12.30;8.23;;;16.10;99.90;;;;;;4994227;28;20206;-75
2023/05/10 05:46:35;;;;;;;9.37;8.37;;;16.10;99.90;;;;;;5010811;28;20581;-75
2023/05/10 05:49:01;;;;;;;11.90;8.00;;;16.10;99.90;;;;;;5010696;28;20949;-75
2023/05/10 05:51:26;;;;;;;10.30;8.07;;;16.10;99.90;;;;;;4994368;28;20201;-75
2023/05/10 05:53:52;;;;;;;13.73;8.17;;;16.10;99.90;;;;;;5010406;28;20198;-76
2023/05/10 05:56:23;;;;;;;10.87;7.90;;;16.10;99.90;;;;;;5010433;28;20289;-75
2023/05/10 05:58:50;;;;;;;13.70;7.53;;;16.20;99.90;;;;;;5011702;28;20577;-76
2023/05/10 06:01:16;;;;;;;10.50;8.00;;;16.20;99.90;;;;;;5010079;28;20586;-76
2023/05/10 06:03:42;;;;;;;10.93;7.37;;;16.20;99.90;;;;;;4993792;28;21168;-77
2023/05/10 06:06:08;;;;;;;11.40;7.33;;;16.20;99.90;;;;;;5011074;28;20601;-77
2023/05/10 06:08:34;;;;;;;9.80;7.50;;;16.30;99.90;;;;;;5024184;28;21237;-77
2023/05/10 06:11:00;;;;;;;11.80;8.80;;;16.40;99.90;;;;;;5029643;28;20631;-76
2023/05/10 06:13:31;;;;;;;13.10;7.87;;;16.40;99.90;;;;;;5013538;28;20674;-76
2023/05/10 06:16:01;;;;;;;10.57;7.63;;;16.40;99.90;;;;;;5030547;28;20548;-76
2023/05/10 06:18:27;;;;;;;10.10;7.80;;;16.40;99.90;;;;;;5031294;28;20568;-76
2023/05/10 06:20:52;;;;;;;11.80;8.33;;;16.50;99.90;;;;;;5027883;28;20604;-76
2023/05/10 06:23:18;;;;;;;10.07;7.50;;;16.50;99.90;;;;;;4993841;28;20616;-75
2023/05/10 06:25:44;;;;;;;9.63;7.50;;;16.50;99.90;;;;;;5010718;28;20174;-75
2023/05/10 06:28:09;;;;;;;10.37;7.90;;;16.50;99.90;;;;;;5011514;28;20213;-75
2023/05/10 06:30:36;;;;;;;10.47;7.80;;;16.50;99.90;;;;;;5011450;28;20166;-75
2023/05/10 06:33:02;;;;;;;10.47;8.70;;;16.50;99.90;;;;;;4993083;28;20281;-75
2023/05/10 06:35:28;;;;;;;10.57;8.60;;;16.50;99.90;;;;;;5009884;28;20647;-76
2023/05/10 06:37:54;;;;;;;11.23;8.27;;;16.50;99.90;;;;;;4992415;28;20635;-76
2023/05/10 06:40:20;;;;;;;10.87;7.80;;;16.50;99.90;;;;;;5010245;28;20596;-76
2023/05/10 06:42:47;;;;;;;18.63;7.90;;;16.50;99.90;;;;;;5020466;28;20600;-75
2023/05/10 06:45:14;;;;;;;10.70;7.70;;;16.50;99.90;;;;;;5011677;28;21045;-76
2023/05/10 06:47:40;;;;;;;8.70;7.80;;;16.50;99.90;;;;;;5010924;28;20629;-76
2023/05/10 06:50:07;;;;;;;24.37;21.77;;;16.50;99.90;;;;;;5009701;28;20689;-76
2023/05/10 06:52:33;;;;;;;13.73;11.27;;;16.50;99.90;;;;;;5010929;28;20561;-76
2023/05/10 06:55:00;;;;;;;11.33;9.17;;;16.50;99.90;;;;;;5006406;28;20612;-77
2023/05/10 06:57:26;;;;;;;11.03;8.30;;;16.40;99.90;;;;;;5009336;28;20265;-77
2023/05/10 06:59:52;;;;;;;12.57;9.60;;;16.40;99.90;;;;;;5010548;28;20681;-77
2023/05/10 07:02:18;;;;;;;13.57;9.63;;;16.40;99.90;;;;;;4995142;28;20182;-76
2023/05/10 07:04:44;;;;;;;10.73;8.30;;;16.40;99.90;;;;;;5030036;28;20623;-76
2023/05/10 07:07:10;;;;;;;10.10;7.90;;;16.40;99.90;;;;;;5005899;28;21023;-76
2023/05/10 07:09:35;;;;;;;12.43;8.97;;;16.40;99.90;;;;;;5010810;28;21235;-77
2023/05/10 07:12:01;;;;;;;10.10;8.27;;;16.40;99.90;;;;;;5010436;28;20182;-77
2023/05/10 07:14:27;;;;;;;12.70;9.00;;;16.40;99.90;;;;;;5010949;28;20229;-78
2023/05/10 07:16:53;;;;;;;11.03;8.63;;;16.40;99.90;;;;;;5010109;28;20590;-77
2023/05/10 07:19:19;;;;;;;10.77;9.20;;;16.50;99.90;;;;;;5012202;28;20937;-76
2023/05/10 07:21:45;;;;;;;10.40;7.80;;;16.50;99.90;;;;;;5012618;28;20178;-76
2023/05/10 07:24:11;;;;;;;10.17;8.80;;;16.60;99.90;;;;;;4993367;28;20617;-76
2023/05/10 07:26:37;;;;;;;11.63;8.70;;;16.70;99.90;;;;;;4992946;28;20177;-76
2023/05/10 07:29:02;;;;;;;10.63;8.30;;;16.70;99.90;;;;;;4992720;28;20569;-77
2023/05/10 07:31:28;;;;;;;10.00;8.33;;;16.80;99.90;;;;;;5010627;28;20221;-76
2023/05/10 07:33:54;;;;;;;9.83;7.40;;;16.90;99.90;;;;;;5010108;28;20597;-76
2023/05/10 07:36:20;;;;;;;12.37;7.80;;;16.90;99.90;;;;;;5010473;28;20181;-76
2023/05/10 07:38:45;;;;;;;13.67;8.57;;;16.90;99.90;;;;;;4993013;28;20182;-76
2023/05/10 07:41:12;;;;;;;12.17;8.77;;;16.90;99.90;;;;;;5009506;28;20183;-75
2023/05/10 07:43:38;;;;;;;10.10;8.77;;;16.90;99.90;;;;;;4992819;28;20678;-75
2023/05/10 07:46:03;;;;;;;11.37;9.03;;;16.90;99.90;;;;;;4992465;28;20590;-75
2023/05/10 07:48:29;;;;;;;9.83;7.70;;;16.90;99.90;;;;;;5010901;28;20666;-76
2023/05/10 07:50:55;;;;;;;12.33;8.00;;;17.00;99.90;;;;;;5010278;28;20577;-75
2023/05/10 07:53:20;;;;;;;11.40;7.57;;;17.00;99.90;;;;;;4993542;28;20288;-75
2023/05/10 07:55:58;;;;;;;10.20;7.60;;;17.00;99.90;;;;;;4994995;28;20240;-74
2023/05/10 07:58:25;;;;;;;10.80;8.07;;;17.00;99.90;;;;;;5021244;28;20883;-75
2023/05/10 08:00:52;;;;;;;9.37;6.73;;;17.00;99.90;;;;;;5033628;28;20582;-75
2023/05/10 08:03:17;;;;;;;10.20;8.80;;;17.00;99.90;;;;;;4999408;28;20616;-75
2023/05/10 08:05:43;;;;;;;14.17;7.90;;;17.00;99.90;;;;;;5015887;28;21213;-75
2023/05/10 08:08:09;;;;;;;11.90;7.60;;;17.00;99.90;;;;;;5025655;28;20593;-75
2023/05/10 08:10:35;;;;;;;10.63;8.70;;;17.00;99.90;;;;;;4980429;28;20201;-75
2023/05/10 08:13:00;;;;;;;12.13;8.77;;;17.00;99.90;;;;;;4995719;28;21103;-75
2023/05/10 08:15:26;;;;;;;11.17;7.90;;;17.00;99.90;;;;;;4996636;28;20260;-76
2023/05/10 08:17:52;;;;;;;8.17;7.20;;;17.00;99.90;;;;;;5013486;28;20612;-75
2023/05/10 08:20:18;;;;;;;11.87;7.83;;;17.00;99.90;;;;;;5013528;28;20815;-76
2023/05/10 08:22:47;;;;;;;12.30;8.30;;;17.00;99.90;;;;;;5012081;28;20186;-76
2023/05/10 08:25:13;;;;;;;10.47;7.90;;;17.10;99.90;;;;;;5013480;28;20569;-76
2023/05/10 08:27:39;;;;;;;12.30;7.30;;;17.10;99.90;;;;;;4995467;28;20969;-76
2023/05/10 08:30:05;;;;;;;8.10;6.23;;;17.10;99.90;;;;;;5011770;28;20210;-76
2023/05/10 08:32:31;;;;;;;7.63;5.50;;;17.10;99.90;;;;;;5012459;28;20600;-76
2023/05/10 08:34:57;;;;;;;6.47;5.87;;;17.10;99.90;;;;;;4999581;28;20601;-76
2023/05/10 08:37:23;;;;;;;8.90;5.73;;;17.10;99.90;;;;;;5011690;28;20186;-76
2023/05/10 08:39:49;;;;;;;8.30;6.23;;;17.10;99.90;;;;;;5012372;28;20589;-76
2023/05/10 08:42:20;;;;;;;8.77;6.03;;;17.10;99.90;;;;;;5012416;28;20590;-76
2023/05/10 08:44:48;;;;;;;6.60;5.87;;;17.10;99.90;;;;;;4995738;28;20622;-75
2023/05/10 08:47:17;;;;;;;6.83;5.83;;;17.10;99.90;;;;;;5011202;28;20709;-75
2023/05/10 08:49:47;;;;;;;9.07;6.23;;;17.10;99.90;;;;;;5013324;28;20577;-76
2023/05/10 08:52:16;;;;;;;7.23;5.80;;;17.10;99.90;;;;;;4995499;28;20589;-76
2023/05/10 08:54:42;;;;;;;7.57;6.27;;;17.20;99.90;;;;;;4994874;28;20625;-75
2023/05/10 08:57:07;;;;;;;7.93;5.07;;;17.20;99.90;;;;;;5029733;28;20956;-76
2023/05/10 08:59:33;;;;;;;7.70;5.97;;;17.30;99.90;;;;;;5027586;28;20574;-76
2023/05/10 09:02:00;;;;;;;7.87;6.50;;;17.40;99.90;;;;;;5011636;28;20701;-76
2023/05/10 09:04:27;;;;;;;7.63;5.67;;;17.50;99.90;;;;;;4994694;28;20268;-76
2023/05/10 09:06:54;;;;;;;9.40;6.77;;;17.60;99.90;;;;;;5012415;28;20578;-76
2023/05/10 09:09:21;;;;;;;7.10;6.40;;;17.70;99.90;;;;;;5013215;28;20597;-75
2023/05/10 09:11:47;;;;;;;9.33;6.60;;;17.90;99.90;;;;;;4998382;28;20596;-75
2023/05/10 09:14:13;;;;;;;8.87;7.23;;;18.10;99.90;;;;;;5012858;28;20652;-75
2023/05/10 09:16:40;;;;;;;8.70;6.43;;;18.30;99.90;;;;;;5010881;28;20577;-75
2023/05/10 09:19:06;;;;;;;6.97;6.30;;;18.40;99.90;;;;;;5012563;28;20744;-75
2023/05/10 09:21:36;;;;;;;8.00;7.10;;;18.50;99.90;;;;;;5011675;28;20946;-75
2023/05/10 09:24:08;;;;;;;7.67;6.97;;;18.50;99.90;;;;;;5012713;28;21203;-77
2023/05/10 09:26:35;;;;;;;9.90;7.83;;;18.60;99.90;;;;;;5011036;28;20593;-76
2023/05/10 09:29:02;;;;;;;10.80;9.10;;;18.70;99.90;;;;;;4994434;28;20710;-76
2023/05/10 09:31:50;;;;;;;12.10;10.70;;;18.80;99.90;;;;;;5012445;28;20570;-76
2023/05/10 09:34:28;;;;;;;13.43;9.40;;;18.90;99.90;;;;;;4994241;28;20613;-75
2023/05/10 09:36:56;;;;;;;13.67;10.87;;;18.80;99.90;;;;;;5011025;28;20596;-75
2023/05/10 09:39:31;;;;;;;11.00;9.63;;;18.70;99.90;;;;;;5011733;28;20576;-75
2023/05/10 09:41:59;;;;;;;10.87;8.20;;;18.60;99.90;;;;;;5011099;28;20577;-76
2023/05/10 09:44:26;;;;;;;11.60;8.57;;;18.50;99.90;;;;;;5010445;28;20620;-75
2023/05/10 09:46:52;;;;;;;9.07;7.30;;;18.40;99.90;;;;;;5012081;28;20599;-75
2023/05/10 09:49:19;;;;;;;9.30;8.23;;;18.30;99.90;;;;;;5015819;28;20912;-75
2023/05/10 09:51:45;;;;;;;9.07;7.50;;;18.20;99.90;;;;;;4999178;28;20601;-76
2023/05/10 09:54:16;;;;;;;11.03;8.30;;;18.10;99.90;;;;;;5031823;28;20614;-76
2023/05/10 09:56:42;;;;;;;9.20;6.77;;;18.00;99.90;;;;;;5029715;28;20231;-76
2023/05/10 09:59:10;;;;;;;11.10;8.27;;;17.90;99.90;;;;;;5014145;28;20580;-76
2023/05/10 10:01:36;;;;;;;9.47;7.30;;;18.00;99.90;;;;;;5030088;28;20173;-76
2023/05/10 10:04:07;;;;;;;10.93;7.93;;;18.10;99.90;;;;;;5034499;28;20611;-76
2023/05/10 10:06:39;;;;;;;9.57;6.80;;;18.40;99.90;;;;;;5031447;28;20564;-76
2023/05/10 10:09:09;;;;;;;9.63;7.60;;;18.60;99.90;;;;;;5017901;28;20608;-76
2023/05/10 10:11:36;;;;;;;10.07;7.33;;;18.90;99.90;;;;;;4994049;28;20597;-76
2023/05/10 10:14:02;;;;;;;7.70;6.90;;;19.10;99.90;;;;;;4985274;28;20629;-76
2023/05/10 10:16:29;;;;;;;8.00;6.63;;;19.30;99.90;;;;;;4990679;28;20601;-75
2023/05/10 10:18:56;;;;;;;6.60;5.70;;;19.60;99.90;;;;;;4991223;28;20578;-76
2023/05/10 10:21:22;;;;;;;9.20;6.87;;;19.90;99.90;;;;;;4998169;28;20589;-76
2023/05/10 10:23:48;;;;;;;7.97;6.80;;;20.20;99.90;;;;;;5010343;28;20663;-76
2023/05/10 10:26:15;;;;;;;10.03;7.17;;;20.50;99.90;;;;;;5009721;28;20600;-76
2023/05/10 10:29:12;;;;;;;7.27;6.47;;;20.70;99.90;;;;;;5010110;28;21277;-76
2023/05/10 10:31:46;;;;;;;6.93;6.13;;;21.00;99.90;;;;;;5009516;28;20581;-76
2023/05/10 10:34:27;;;;;;;8.37;5.97;;;21.30;99.90;;;;;;5011515;28;20605;-76
2023/05/10 10:36:54;;;;;;;8.13;7.03;;;21.70;99.90;;;;;;5009327;28;20593;-75
2023/05/10 10:39:21;;;;;;;7.47;5.87;;;22.30;99.90;;;;;;5010281;28;21418;-76
2023/05/10 10:41:51;;;;;;;5.43;4.67;;;22.90;99.90;;;;;;4993618;28;20942;-76
2023/05/10 10:44:24;;;;;;;6.10;4.47;;;23.50;99.90;;;;;;5010562;28;21085;-76
2023/05/10 10:47:05;;;;;;;5.30;4.20;;;24.00;99.90;;;;;;5010884;28;20557;-76
2023/05/10 10:49:33;;;;;;;5.33;4.70;;;24.40;99.90;;;;;;5004764;28;20576;-76
2023/05/10 10:52:21;;;;;;;5.13;4.17;;;24.60;99.90;;;;;;5029816;28;20584;-76
2023/05/10 10:55:01;;;;;;;6.63;4.90;;;24.80;99.90;;;;;;5030388;28;20631;-76
2023/05/10 10:57:29;;;;;;;6.13;5.37;;;25.10;99.90;;;;;;5013099;28;20576;-76
2023/05/10 11:00:20;;;;;;;7.07;5.83;;;25.40;99.90;;;;;;5029065;28;20573;-77
2023/05/10 11:03:10;;;;;;;9.13;5.97;;;25.70;99.90;;;;;;5030806;28;20565;-76
2023/05/10 11:05:41;;;;;;;8.50;6.77;;;26.00;99.90;;;;;;5012349;28;20568;-76
2023/05/10 11:08:14;;;;;;;8.23;5.50;;;26.20;99.90;;;;;;5025598;28;21391;-76
2023/05/10 11:10:51;;;;;;;6.30;4.97;;;26.20;99.90;;;;;;5011039;28;21255;-76
2023/05/10 11:13:34;;;;;;;4.03;3.63;;;26.20;99.90;;;;;;4993006;28;20607;-76
2023/05/10 11:16:12;;;;;;;5.83;4.70;;;26.10;99.90;;;;;;5009525;28;20680;-76
2023/05/10 11:18:38;;;;;;;3.23;2.63;;;26.00;99.90;;;;;;5009141;28;20596;-75
2023/05/10 11:21:05;;;;;;;4.40;3.07;;;25.80;99.90;;;;;;5010671;28;20689;-76
2023/05/10 11:23:40;;;;;;;2.83;2.03;;;25.70;99.90;;;;;;4994353;28;20198;-75
2023/05/10 11:26:09;;;;;;;2.80;2.47;;;25.50;99.90;;;;;;5008830;28;20598;-75
2023/05/10 11:28:41;;;;;;;2.50;2.17;;;25.30;99.90;;;;;;5008837;28;20629;-75
2023/05/10 11:31:07;;;;;;;2.53;2.00;;;25.10;99.90;;;;;;5014630;28;20698;-76
2023/05/10 11:33:43;;;;;;;3.00;2.43;;;25.00;99.90;;;;;;4997250;28;20619;-74
2023/05/10 11:36:15;;;;;;;3.03;2.00;;;24.90;99.90;;;;;;4996413;28;20986;-74
2023/05/10 11:38:41;;;;;;;3.00;2.07;;;24.70;99.90;;;;;;5015026;28;20933;-75
2023/05/10 11:41:12;;;;;;;3.27;2.30;;;24.50;99.90;;;;;;5012740;28;20584;-75
2023/05/10 11:43:41;;;;;;;3.10;2.00;;;24.40;99.90;;;;;;5017371;28;20643;-75
2023/05/10 11:46:10;;;;;;;3.23;2.20;;;24.20;99.90;;;;;;5031821;28;21211;-75
2023/05/10 11:48:36;;;;;;;2.00;1.50;;;23.90;99.90;;;;;;5033998;28;20662;-75
2023/05/10 11:51:02;;;;;;;3.50;1.90;;;23.70;99.90;;;;;;5034083;28;21139;-74
2023/05/10 11:53:32;;;;;;;4.17;2.00;;;23.40;99.90;;;;;;5032008;28;21004;-75
2023/05/10 11:56:09;;;;;;;4.47;2.43;;;23.30;99.90;;;;;;5033600;28;20576;-74
2023/05/10 11:58:36;;;;;;;3.47;1.80;;;23.10;99.90;;;;;;5033134;28;20630;-74
2023/05/10 12:01:04;;;;;;;2.60;1.60;;;23.00;99.90;;;;;;5033858;28;20564;-74
2023/05/10 12:03:30;;;;;;;3.30;1.30;;;22.90;99.90;;;;;;5032989;28;20971;-74
2023/05/10 12:05:57;;;;;;;2.10;1.10;;;22.90;99.90;;;;;;5012674;28;20680;-75
2023/05/10 12:08:27;;;;;;;2.20;1.17;;;22.90;99.90;;;;;;5013762;28;20625;-74
2023/05/10 12:11:04;;;;;;;2.33;1.27;;;23.00;99.90;;;;;;4995835;28;20608;-74
2023/05/10 12:13:29;;;;;;;1.80;1.10;;;23.00;99.90;;;;;;5012489;28;20618;-75
2023/05/10 12:15:58;;;;;;;1.90;1.07;;;23.10;99.90;;;;;;5011706;28;20569;-75
2023/05/10 12:18:25;;;;;;;2.67;1.53;;;23.30;99.90;;;;;;5012742;28;20552;-75
2023/05/10 12:20:54;;;;;;;2.17;1.27;;;23.40;99.90;;;;;;4995582;28;20585;-76
2023/05/10 12:23:20;;;;;;;2.07;1.37;;;23.50;99.90;;;;;;4996103;28;20675;-76
2023/05/10 12:25:46;;;;;;;2.03;1.50;;;23.70;99.90;;;;;;4996273;28;20629;-75
2023/05/10 12:28:12;;;;;;;3.63;2.77;;;23.90;99.90;;;;;;5011629;28;20735;-75
2023/05/10 12:30:38;;;;;;;2.30;1.97;;;24.00;99.90;;;;;;4996110;28;20676;-75
2023/05/10 12:33:09;;;;;;;2.73;2.07;;;24.10;99.90;;;;;;5012741;28;20197;-75
2023/05/10 12:35:53;;;;;;;1.80;1.37;;;24.10;99.90;;;;;;4979426;28;20613;-76
2023/05/10 12:38:31;;;;;;;2.37;1.50;;;24.10;99.90;;;;;;5012974;28;20584;-76
2023/05/10 12:41:02;;;;;;;2.63;1.50;;;24.20;99.90;;;;;;5019814;28;20620;-75
2023/05/10 12:43:28;;;;;;;2.93;1.47;;;24.30;99.90;;;;;;5031085;28;20643;-75
2023/05/10 12:45:54;;;;;;;3.47;2.20;;;24.30;99.90;;;;;;5031550;28;20584;-76
2023/05/10 12:48:19;;;;;;;4.37;2.37;;;24.30;99.90;;;;;;5031565;28;20654;-75
2023/05/10 12:50:46;;;;;;;2.60;1.30;;;24.30;99.90;;;;;;5032338;28;20626;-75